sensor_id;sensor_type;location;lat;lon;timestamp;P1;durP1;ratioP1;P2;durP2;ratioP2
28246;SDS011;34504;53.178;22.058;2022-11-15T00:01:46;100.30;;;47.00;;
28246;SDS011;34504;53.178;22.058;2022-11-15T00:04:35;75.78;;;39.00;;
28246;SDS011;34504;53.178;22.058;2022-11-15T00:07:24;111.95;;;47.63;;
28246;SDS011;34504;53.178;22.058;2022-11-15T00:10:31;96.18;;;57.15;;
28246;SDS011;34504;53.178;22.058;2022-11-15T00:13:18;85.57;;;56.17;;
28246;SDS011;34504;53.178;22.058;2022-11-15T00:16:05;72.22;;;46.25;;
28246;SDS011;34504;53.178;22.058;2022-11-15T00:18:52;64.05;;;37.08;;
28246;SDS011;34504;53.178;22.058;2022-11-15T00:21:44;62.25;;;35.22;;
28246;SDS011;34504;53.178;22.058;2022-11-15T00:24:31;63.28;;;36.05;;
28246;SDS011;34504;53.178;22.058;2022-11-15T00:27:17;59.75;;;34.22;;
28246;SDS011;34504;53.178;22.058;2022-11-15T00:30:04;57.75;;;33.50;;
28246;SDS011;34504;53.178;22.058;2022-11-15T00:38:37;67.00;;;37.63;;
28246;SDS011;34504;53.178;22.058;2022-11-15T00:41:25;57.92;;;35.00;;
28246;SDS011;34504;53.178;22.058;2022-11-15T00:44:11;58.92;;;35.90;;
28246;SDS011;34504;53.178;22.058;2022-11-15T00:47:16;64.68;;;36.47;;
28246;SDS011;34504;53.178;22.058;2022-11-15T00:50:02;56.55;;;34.10;;
28246;SDS011;34504;53.178;22.058;2022-11-15T00:53:04;55.30;;;32.67;;
28246;SDS011;34504;53.178;22.058;2022-11-15T00:55:58;55.25;;;33.05;;
28246;SDS011;34504;53.178;22.058;2022-11-15T00:59:10;52.58;;;32.17;;
28246;SDS011;34504;53.178;22.058;2022-11-15T01:02:00;56.03;;;32.95;;
28246;SDS011;34504;53.178;22.058;2022-11-15T01:04:48;54.63;;;32.08;;
28246;SDS011;34504;53.178;22.058;2022-11-15T01:07:45;57.15;;;34.25;;
28246;SDS011;34504;53.178;22.058;2022-11-15T01:11:09;53.38;;;32.03;;
28246;SDS011;34504;53.178;22.058;2022-11-15T01:14:16;54.13;;;32.65;;
28246;SDS011;34504;53.178;22.058;2022-11-15T01:17:38;55.95;;;31.73;;
28246;SDS011;34504;53.178;22.058;2022-11-15T01:23:57;49.45;;;29.45;;
28246;SDS011;34504;53.178;22.058;2022-11-15T01:26:44;53.10;;;31.33;;
28246;SDS011;34504;53.178;22.058;2022-11-15T01:29:42;48.60;;;29.50;;
28246;SDS011;34504;53.178;22.058;2022-11-15T01:32:31;49.40;;;29.27;;
28246;SDS011;34504;53.178;22.058;2022-11-15T01:35:18;53.08;;;30.40;;
28246;SDS011;34504;53.178;22.058;2022-11-15T01:38:06;45.97;;;27.85;;
28246;SDS011;34504;53.178;22.058;2022-11-15T01:40:54;45.45;;;27.50;;
28246;SDS011;34504;53.178;22.058;2022-11-15T01:53:34;31.67;;;19.65;;
28246;SDS011;34504;53.178;22.058;2022-11-15T01:56:24;45.13;;;27.85;;
28246;SDS011;34504;53.178;22.058;2022-11-15T02:02:25;44.88;;;26.90;;
28246;SDS011;34504;53.178;22.058;2022-11-15T02:05:30;44.22;;;28.20;;
28246;SDS011;34504;53.178;22.058;2022-11-15T02:08:45;44.00;;;27.52;;
28246;SDS011;34504;53.178;22.058;2022-11-15T02:11:32;43.15;;;26.27;;
28246;SDS011;34504;53.178;22.058;2022-11-15T02:14:33;41.65;;;25.35;;
28246;SDS011;34504;53.178;22.058;2022-11-15T02:41:23;45.78;;;26.67;;
28246;SDS011;34504;53.178;22.058;2022-11-15T02:44:42;50.70;;;28.00;;
28246;SDS011;34504;53.178;22.058;2022-11-15T02:50:55;50.20;;;28.85;;
28246;SDS011;34504;53.178;22.058;2022-11-15T02:54:22;54.38;;;28.48;;
28246;SDS011;34504;53.178;22.058;2022-11-15T02:57:12;51.72;;;29.67;;
28246;SDS011;34504;53.178;22.058;2022-11-15T03:06:49;45.50;;;26.53;;
28246;SDS011;34504;53.178;22.058;2022-11-15T03:09:47;48.58;;;27.42;;
28246;SDS011;34504;53.178;22.058;2022-11-15T03:13:26;48.90;;;27.38;;
28246;SDS011;34504;53.178;22.058;2022-11-15T03:19:34;47.35;;;27.30;;
28246;SDS011;34504;53.178;22.058;2022-11-15T03:23:08;56.10;;;29.13;;
28246;SDS011;34504;53.178;22.058;2022-11-15T03:26:03;50.85;;;26.58;;
28246;SDS011;34504;53.178;22.058;2022-11-15T03:28:55;46.97;;;26.48;;
28246;SDS011;34504;53.178;22.058;2022-11-15T03:31:47;51.00;;;27.95;;
28246;SDS011;34504;53.178;22.058;2022-11-15T03:34:46;52.85;;;28.92;;
28246;SDS011;34504;53.178;22.058;2022-11-15T03:41:05;51.15;;;27.63;;
28246;SDS011;34504;53.178;22.058;2022-11-15T03:44:15;55.53;;;29.77;;
28246;SDS011;34504;53.178;22.058;2022-11-15T03:47:38;51.20;;;29.15;;
28246;SDS011;34504;53.178;22.058;2022-11-15T03:50:36;52.60;;;27.83;;
28246;SDS011;34504;53.178;22.058;2022-11-15T03:53:41;49.58;;;27.10;;
28246;SDS011;34504;53.178;22.058;2022-11-15T03:57:13;48.88;;;26.77;;
28246;SDS011;34504;53.178;22.058;2022-11-15T04:00:19;48.90;;;24.48;;
28246;SDS011;34504;53.178;22.058;2022-11-15T04:03:41;53.10;;;26.60;;
28246;SDS011;34504;53.178;22.058;2022-11-15T04:06:46;49.88;;;28.42;;
28246;SDS011;34504;53.178;22.058;2022-11-15T04:09:36;47.80;;;26.58;;
28246;SDS011;34504;53.178;22.058;2022-11-15T04:12:42;51.00;;;26.88;;
28246;SDS011;34504;53.178;22.058;2022-11-15T04:15:32;44.20;;;24.92;;
28246;SDS011;34504;53.178;22.058;2022-11-15T04:18:44;50.65;;;26.13;;
28246;SDS011;34504;53.178;22.058;2022-11-15T04:21:51;45.38;;;24.15;;
28246;SDS011;34504;53.178;22.058;2022-11-15T04:25:14;40.00;;;21.23;;
28246;SDS011;34504;53.178;22.058;2022-11-15T04:32:12;35.63;;;18.55;;
28246;SDS011;34504;53.178;22.058;2022-11-15T04:35:01;37.60;;;20.08;;
28246;SDS011;34504;53.178;22.058;2022-11-15T04:40:55;41.08;;;21.88;;
28246;SDS011;34504;53.178;22.058;2022-11-15T04:43:47;42.47;;;20.58;;
28246;SDS011;34504;53.178;22.058;2022-11-15T04:46:33;42.05;;;21.75;;
28246;SDS011;34504;53.178;22.058;2022-11-15T04:49:26;37.85;;;20.00;;
28246;SDS011;34504;53.178;22.058;2022-11-15T04:52:15;37.72;;;20.10;;
28246;SDS011;34504;53.178;22.058;2022-11-15T04:55:03;41.83;;;21.10;;
28246;SDS011;34504;53.178;22.058;2022-11-15T04:57:59;40.80;;;21.48;;
28246;SDS011;34504;53.178;22.058;2022-11-15T05:00:46;39.30;;;21.00;;
28246;SDS011;34504;53.178;22.058;2022-11-15T05:03:34;39.00;;;20.70;;
28246;SDS011;34504;53.178;22.058;2022-11-15T05:07:09;39.15;;;19.38;;
28246;SDS011;34504;53.178;22.058;2022-11-15T05:10:29;34.92;;;19.00;;
28246;SDS011;34504;53.178;22.058;2022-11-15T05:13:38;39.20;;;19.83;;
28246;SDS011;34504;53.178;22.058;2022-11-15T05:16:24;41.90;;;19.85;;
28246;SDS011;34504;53.178;22.058;2022-11-15T05:19:11;39.75;;;20.23;;
28246;SDS011;34504;53.178;22.058;2022-11-15T05:21:58;42.35;;;20.55;;
28246;SDS011;34504;53.178;22.058;2022-11-15T05:24:44;39.20;;;20.73;;
28246;SDS011;34504;53.178;22.058;2022-11-15T05:27:32;38.88;;;19.85;;
28246;SDS011;34504;53.178;22.058;2022-11-15T05:30:49;39.67;;;21.50;;
28246;SDS011;34504;53.178;22.058;2022-11-15T05:34:44;46.25;;;22.92;;
28246;SDS011;34504;53.178;22.058;2022-11-15T05:37:31;41.00;;;20.73;;
28246;SDS011;34504;53.178;22.058;2022-11-15T05:40:17;40.33;;;21.10;;
28246;SDS011;34504;53.178;22.058;2022-11-15T05:43:06;43.97;;;23.08;;
28246;SDS011;34504;53.178;22.058;2022-11-15T05:45:52;40.53;;;20.98;;
28246;SDS011;34504;53.178;22.058;2022-11-15T05:48:40;43.47;;;22.35;;
28246;SDS011;34504;53.178;22.058;2022-11-15T05:51:34;49.25;;;22.23;;
28246;SDS011;34504;53.178;22.058;2022-11-15T05:54:34;42.95;;;22.20;;
28246;SDS011;34504;53.178;22.058;2022-11-15T05:57:29;46.00;;;23.15;;
28246;SDS011;34504;53.178;22.058;2022-11-15T06:00:33;49.45;;;24.45;;
28246;SDS011;34504;53.178;22.058;2022-11-15T06:03:31;52.30;;;25.13;;
28246;SDS011;34504;53.178;22.058;2022-11-15T06:07:01;51.63;;;26.23;;
28246;SDS011;34504;53.178;22.058;2022-11-15T06:10:21;53.08;;;27.48;;
28246;SDS011;34504;53.178;22.058;2022-11-15T06:14:07;53.28;;;26.13;;
28246;SDS011;34504;53.178;22.058;2022-11-15T06:17:04;59.63;;;29.58;;
28246;SDS011;34504;53.178;22.058;2022-11-15T06:23:37;60.03;;;29.25;;
28246;SDS011;34504;53.178;22.058;2022-11-15T06:26:51;57.50;;;29.15;;
28246;SDS011;34504;53.178;22.058;2022-11-15T06:29:45;71.03;;;35.17;;
28246;SDS011;34504;53.178;22.058;2022-11-15T06:39:31;67.43;;;33.43;;
28246;SDS011;34504;53.178;22.058;2022-11-15T06:42:45;63.72;;;31.52;;
28246;SDS011;34504;53.178;22.058;2022-11-15T06:45:37;67.60;;;33.90;;
28246;SDS011;34504;53.178;22.058;2022-11-15T06:48:38;63.88;;;33.40;;
28246;SDS011;34504;53.178;22.058;2022-11-15T06:51:40;68.50;;;33.38;;
28246;SDS011;34504;53.178;22.058;2022-11-15T06:54:54;64.40;;;32.08;;
28246;SDS011;34504;53.178;22.058;2022-11-15T07:01:09;69.72;;;34.22;;
28246;SDS011;34504;53.178;22.058;2022-11-15T07:04:27;77.28;;;34.45;;
28246;SDS011;34504;53.178;22.058;2022-11-15T07:07:53;69.00;;;33.15;;
28246;SDS011;34504;53.178;22.058;2022-11-15T07:10:57;76.32;;;35.67;;
28246;SDS011;34504;53.178;22.058;2022-11-15T07:14:52;80.18;;;33.90;;
28246;SDS011;34504;53.178;22.058;2022-11-15T07:18:04;77.60;;;35.53;;
28246;SDS011;34504;53.178;22.058;2022-11-15T07:21:14;73.55;;;35.00;;
28246;SDS011;34504;53.178;22.058;2022-11-15T07:24:24;77.97;;;37.33;;
28246;SDS011;34504;53.178;22.058;2022-11-15T07:27:33;81.68;;;37.40;;
28246;SDS011;34504;53.178;22.058;2022-11-15T07:34:32;73.00;;;35.35;;
28246;SDS011;34504;53.178;22.058;2022-11-15T07:37:32;76.15;;;36.05;;
28246;SDS011;34504;53.178;22.058;2022-11-15T07:40:35;73.22;;;33.38;;
28246;SDS011;34504;53.178;22.058;2022-11-15T07:43:46;65.57;;;32.25;;
28246;SDS011;34504;53.178;22.058;2022-11-15T07:46:44;68.95;;;32.40;;
28246;SDS011;34504;53.178;22.058;2022-11-15T07:50:03;70.90;;;34.70;;
28246;SDS011;34504;53.178;22.058;2022-11-15T07:53:09;71.75;;;33.42;;
28246;SDS011;34504;53.178;22.058;2022-11-15T07:56:16;66.25;;;32.03;;
28246;SDS011;34504;53.178;22.058;2022-11-15T07:59:14;65.65;;;32.85;;
28246;SDS011;34504;53.178;22.058;2022-11-15T08:02:20;74.53;;;34.47;;
28246;SDS011;34504;53.178;22.058;2022-11-15T08:05:34;65.63;;;32.42;;
28246;SDS011;34504;53.178;22.058;2022-11-15T08:08:39;76.78;;;37.40;;
28246;SDS011;34504;53.178;22.058;2022-11-15T08:11:42;73.00;;;35.42;;
28246;SDS011;34504;53.178;22.058;2022-11-15T08:14:42;74.43;;;34.95;;
28246;SDS011;34504;53.178;22.058;2022-11-15T08:17:46;76.10;;;34.30;;
28246;SDS011;34504;53.178;22.058;2022-11-15T08:20:52;73.45;;;33.17;;
28246;SDS011;34504;53.178;22.058;2022-11-15T08:24:09;70.90;;;34.33;;
28246;SDS011;34504;53.178;22.058;2022-11-15T08:27:06;72.25;;;34.20;;
28246;SDS011;34504;53.178;22.058;2022-11-15T08:30:08;76.60;;;35.65;;
28246;SDS011;34504;53.178;22.058;2022-11-15T08:33:04;76.55;;;35.03;;
28246;SDS011;34504;53.178;22.058;2022-11-15T08:36:21;71.75;;;33.15;;
28246;SDS011;34504;53.178;22.058;2022-11-15T08:39:28;91.85;;;35.78;;
28246;SDS011;34504;53.178;22.058;2022-11-15T08:42:26;75.93;;;32.75;;
28246;SDS011;34504;53.178;22.058;2022-11-15T08:45:42;64.75;;;31.15;;
28246;SDS011;34504;53.178;22.058;2022-11-15T08:49:01;65.28;;;30.95;;
28246;SDS011;34504;53.178;22.058;2022-11-15T08:51:58;78.03;;;34.50;;
28246;SDS011;34504;53.178;22.058;2022-11-15T08:55:04;75.82;;;35.90;;
28246;SDS011;34504;53.178;22.058;2022-11-15T09:01:23;70.25;;;33.08;;
28246;SDS011;34504;53.178;22.058;2022-11-15T09:04:37;65.57;;;30.40;;
28246;SDS011;34504;53.178;22.058;2022-11-15T09:07:37;62.37;;;30.33;;
28246;SDS011;34504;53.178;22.058;2022-11-15T09:10:55;63.80;;;29.25;;
28246;SDS011;34504;53.178;22.058;2022-11-15T09:17:50;69.97;;;31.95;;
28246;SDS011;34504;53.178;22.058;2022-11-15T09:20:39;69.15;;;33.40;;
28246;SDS011;34504;53.178;22.058;2022-11-15T09:24:04;94.90;;;41.83;;
28246;SDS011;34504;53.178;22.058;2022-11-15T09:27:10;86.68;;;40.70;;
28246;SDS011;34504;53.178;22.058;2022-11-15T09:29:56;82.50;;;37.05;;
28246;SDS011;34504;53.178;22.058;2022-11-15T09:33:05;72.97;;;33.75;;
28246;SDS011;34504;53.178;22.058;2022-11-15T09:36:15;74.53;;;32.42;;
28246;SDS011;34504;53.178;22.058;2022-11-15T09:39:22;75.65;;;33.97;;
28246;SDS011;34504;53.178;22.058;2022-11-15T09:49:56;77.47;;;33.58;;
28246;SDS011;34504;53.178;22.058;2022-11-15T09:52:33;79.38;;;35.05;;
28246;SDS011;34504;53.178;22.058;2022-11-15T09:55:14;83.22;;;35.45;;
28246;SDS011;34504;53.178;22.058;2022-11-15T09:58:37;81.45;;;34.45;;
28246;SDS011;34504;53.178;22.058;2022-11-15T10:01:42;69.38;;;31.77;;
28246;SDS011;34504;53.178;22.058;2022-11-15T10:05:20;83.32;;;32.85;;
28246;SDS011;34504;53.178;22.058;2022-11-15T10:12:30;83.82;;;31.83;;
28246;SDS011;34504;53.178;22.058;2022-11-15T10:22:28;89.07;;;35.42;;
28246;SDS011;34504;53.178;22.058;2022-11-15T10:25:27;83.60;;;35.75;;
28246;SDS011;34504;53.178;22.058;2022-11-15T10:29:48;84.10;;;35.58;;
28246;SDS011;34504;53.178;22.058;2022-11-15T10:36:58;93.10;;;37.47;;
28246;SDS011;34504;53.178;22.058;2022-11-15T10:40:17;106.80;;;43.40;;
28246;SDS011;34504;53.178;22.058;2022-11-15T10:45:43;100.68;;;43.90;;
28246;SDS011;34504;53.178;22.058;2022-11-15T10:52:44;94.45;;;43.38;;
28246;SDS011;34504;53.178;22.058;2022-11-15T10:55:46;93.82;;;39.15;;
28246;SDS011;34504;53.178;22.058;2022-11-15T11:01:50;92.38;;;37.50;;
28246;SDS011;34504;53.178;22.058;2022-11-15T11:04:42;211.15;;;90.47;;
28246;SDS011;34504;53.178;22.058;2022-11-15T11:07:56;184.10;;;94.95;;
28246;SDS011;34504;53.178;22.058;2022-11-15T11:11:01;120.45;;;60.92;;
28246;SDS011;34504;53.178;22.058;2022-11-15T11:14:40;102.90;;;51.28;;
28246;SDS011;34504;53.178;22.058;2022-11-15T11:29:16;107.30;;;44.78;;
28246;SDS011;34504;53.178;22.058;2022-11-15T11:38:51;107.83;;;45.00;;
28246;SDS011;34504;53.178;22.058;2022-11-15T11:55:26;90.60;;;39.63;;
28246;SDS011;34504;53.178;22.058;2022-11-15T12:05:07;85.40;;;36.97;;
28246;SDS011;34504;53.178;22.058;2022-11-15T12:08:03;73.72;;;33.72;;
28246;SDS011;34504;53.178;22.058;2022-11-15T12:15:14;113.70;;;53.95;;
28246;SDS011;34504;53.178;22.058;2022-11-15T12:18:07;94.15;;;39.67;;
28246;SDS011;34504;53.178;22.058;2022-11-15T12:20:55;89.25;;;38.63;;
28246;SDS011;34504;53.178;22.058;2022-11-15T12:27:32;91.03;;;40.05;;
28246;SDS011;34504;53.178;22.058;2022-11-15T12:30:17;96.00;;;39.65;;
28246;SDS011;34504;53.178;22.058;2022-11-15T12:32:52;81.13;;;34.65;;
28246;SDS011;34504;53.178;22.058;2022-11-15T12:38:09;100.82;;;42.70;;
28246;SDS011;34504;53.178;22.058;2022-11-15T12:41:25;141.15;;;60.03;;
28246;SDS011;34504;53.178;22.058;2022-11-15T12:43:42;103.40;;;44.22;;
28246;SDS011;34504;53.178;22.058;2022-11-15T12:46:22;100.82;;;43.08;;
28246;SDS011;34504;53.178;22.058;2022-11-15T12:59:52;104.20;;;44.33;;
28246;SDS011;34504;53.178;22.058;2022-11-15T13:07:59;113.97;;;48.50;;
28246;SDS011;34504;53.178;22.058;2022-11-15T13:10:31;117.78;;;50.17;;
28246;SDS011;34504;53.178;22.058;2022-11-15T13:13:06;89.03;;;37.05;;
28246;SDS011;34504;53.178;22.058;2022-11-15T13:15:37;84.03;;;36.33;;
28246;SDS011;34504;53.178;22.058;2022-11-15T13:18:33;80.13;;;33.72;;
28246;SDS011;34504;53.178;22.058;2022-11-15T13:21:16;73.55;;;32.20;;
28246;SDS011;34504;53.178;22.058;2022-11-15T13:24:16;64.82;;;27.65;;
28246;SDS011;34504;53.178;22.058;2022-11-15T13:26:45;57.33;;;25.98;;
28246;SDS011;34504;53.178;22.058;2022-11-15T13:29:16;67.32;;;27.95;;
28246;SDS011;34504;53.178;22.058;2022-11-15T13:31:46;64.90;;;27.15;;
28246;SDS011;34504;53.178;22.058;2022-11-15T13:34:24;73.60;;;32.03;;
28246;SDS011;34504;53.178;22.058;2022-11-15T13:40:00;68.97;;;30.08;;
28246;SDS011;34504;53.178;22.058;2022-11-15T13:43:15;66.85;;;28.90;;
28246;SDS011;34504;53.178;22.058;2022-11-15T13:46:11;63.55;;;28.90;;
28246;SDS011;34504;53.178;22.058;2022-11-15T13:48:51;69.22;;;27.77;;
28246;SDS011;34504;53.178;22.058;2022-11-15T13:54:30;156.30;;;70.45;;
28246;SDS011;34504;53.178;22.058;2022-11-15T13:59:45;67.72;;;29.98;;
28246;SDS011;34504;53.178;22.058;2022-11-15T14:02:26;75.63;;;30.17;;
28246;SDS011;34504;53.178;22.058;2022-11-15T14:05:05;81.18;;;38.88;;
28246;SDS011;34504;53.178;22.058;2022-11-15T14:07:53;67.22;;;31.48;;
28246;SDS011;34504;53.178;22.058;2022-11-15T14:12:59;75.07;;;33.60;;
28246;SDS011;34504;53.178;22.058;2022-11-15T14:15:34;77.80;;;35.97;;
28246;SDS011;34504;53.178;22.058;2022-11-15T14:18:04;77.70;;;37.28;;
28246;SDS011;34504;53.178;22.058;2022-11-15T14:20:38;74.90;;;35.58;;
28246;SDS011;34504;53.178;22.058;2022-11-15T14:26:28;69.32;;;31.73;;
28246;SDS011;34504;53.178;22.058;2022-11-15T14:29:21;65.10;;;30.95;;
28246;SDS011;34504;53.178;22.058;2022-11-15T14:32:14;69.88;;;32.97;;
28246;SDS011;34504;53.178;22.058;2022-11-15T14:34:48;66.15;;;27.92;;
28246;SDS011;34504;53.178;22.058;2022-11-15T14:37:25;74.82;;;31.17;;
28246;SDS011;34504;53.178;22.058;2022-11-15T14:40:04;99.38;;;41.60;;
28246;SDS011;34504;53.178;22.058;2022-11-15T14:42:34;76.10;;;34.15;;
28246;SDS011;34504;53.178;22.058;2022-11-15T14:45:02;85.57;;;40.50;;
28246;SDS011;34504;53.178;22.058;2022-11-15T14:47:30;65.55;;;32.95;;
28246;SDS011;34504;53.178;22.058;2022-11-15T14:49:58;60.88;;;31.25;;
28246;SDS011;34504;53.178;22.058;2022-11-15T14:52:30;60.38;;;30.88;;
28246;SDS011;34504;53.178;22.058;2022-11-15T14:55:08;60.45;;;30.05;;
28246;SDS011;34504;53.178;22.058;2022-11-15T14:58:01;72.45;;;34.55;;
28246;SDS011;34504;53.178;22.058;2022-11-15T15:00:31;62.38;;;29.73;;
28246;SDS011;34504;53.178;22.058;2022-11-15T15:08:04;64.43;;;26.05;;
28246;SDS011;34504;53.178;22.058;2022-11-15T15:10:35;41.17;;;17.63;;
28246;SDS011;34504;53.178;22.058;2022-11-15T15:13:15;43.78;;;21.17;;
28246;SDS011;34504;53.178;22.058;2022-11-15T15:15:51;55.72;;;27.42;;
28246;SDS011;34504;53.178;22.058;2022-11-15T15:18:19;50.33;;;24.98;;
28246;SDS011;34504;53.178;22.058;2022-11-15T15:20:57;61.78;;;27.23;;
28246;SDS011;34504;53.178;22.058;2022-11-15T15:23:31;63.30;;;27.88;;
28246;SDS011;34504;53.178;22.058;2022-11-15T15:26:00;62.97;;;27.80;;
28246;SDS011;34504;53.178;22.058;2022-11-15T15:28:28;52.03;;;22.05;;
28246;SDS011;34504;53.178;22.058;2022-11-15T15:31:03;54.58;;;23.85;;
28246;SDS011;34504;53.178;22.058;2022-11-15T15:36:01;55.30;;;25.02;;
28246;SDS011;34504;53.178;22.058;2022-11-15T15:38:29;47.22;;;22.17;;
28246;SDS011;34504;53.178;22.058;2022-11-15T15:41:00;64.90;;;29.88;;
28246;SDS011;34504;53.178;22.058;2022-11-15T15:43:32;59.95;;;27.45;;
28246;SDS011;34504;53.178;22.058;2022-11-15T15:46:02;64.15;;;28.33;;
28246;SDS011;34504;53.178;22.058;2022-11-15T15:48:30;62.30;;;27.77;;
28246;SDS011;34504;53.178;22.058;2022-11-15T15:53:39;75.03;;;32.95;;
28246;SDS011;34504;53.178;22.058;2022-11-15T15:56:14;72.13;;;31.23;;
28246;SDS011;34504;53.178;22.058;2022-11-15T15:58:42;61.25;;;28.08;;
28246;SDS011;34504;53.178;22.058;2022-11-15T16:01:12;58.88;;;26.60;;
28246;SDS011;34504;53.178;22.058;2022-11-15T16:03:40;61.70;;;25.60;;
28246;SDS011;34504;53.178;22.058;2022-11-15T16:06:32;62.83;;;28.92;;
28246;SDS011;34504;53.178;22.058;2022-11-15T16:09:15;61.45;;;27.08;;
28246;SDS011;34504;53.178;22.058;2022-11-15T16:11:46;83.60;;;37.22;;
28246;SDS011;34504;53.178;22.058;2022-11-15T16:14:16;79.95;;;38.03;;
28246;SDS011;34504;53.178;22.058;2022-11-15T16:16:48;80.68;;;38.70;;
28246;SDS011;34504;53.178;22.058;2022-11-15T16:19:17;80.03;;;36.45;;
28246;SDS011;34504;53.178;22.058;2022-11-15T16:21:48;83.70;;;41.15;;
28246;SDS011;34504;53.178;22.058;2022-11-15T16:24:17;88.00;;;41.53;;
28246;SDS011;34504;53.178;22.058;2022-11-15T16:26:47;112.25;;;52.45;;
28246;SDS011;34504;53.178;22.058;2022-11-15T16:29:16;121.50;;;62.77;;
28246;SDS011;34504;53.178;22.058;2022-11-15T16:31:47;122.80;;;65.18;;
28246;SDS011;34504;53.178;22.058;2022-11-15T16:34:15;160.75;;;69.85;;
28246;SDS011;34504;53.178;22.058;2022-11-15T16:36:45;171.25;;;61.28;;
28246;SDS011;34504;53.178;22.058;2022-11-15T16:39:13;92.40;;;38.40;;
28246;SDS011;34504;53.178;22.058;2022-11-15T16:41:44;88.85;;;37.70;;
28246;SDS011;34504;53.178;22.058;2022-11-15T16:44:13;80.53;;;36.22;;
28246;SDS011;34504;53.178;22.058;2022-11-15T16:46:42;125.13;;;67.28;;
28246;SDS011;34504;53.178;22.058;2022-11-15T16:49:14;78.63;;;40.30;;
28246;SDS011;34504;53.178;22.058;2022-11-15T16:51:48;153.85;;;83.57;;
28246;SDS011;34504;53.178;22.058;2022-11-15T16:54:17;133.65;;;73.45;;
28246;SDS011;34504;53.178;22.058;2022-11-15T16:56:50;96.38;;;49.20;;
28246;SDS011;34504;53.178;22.058;2022-11-15T16:59:18;103.35;;;51.22;;
28246;SDS011;34504;53.178;22.058;2022-11-15T17:01:48;89.22;;;45.10;;
28246;SDS011;34504;53.178;22.058;2022-11-15T17:04:19;124.55;;;60.67;;
28246;SDS011;34504;53.178;22.058;2022-11-15T17:06:49;91.25;;;46.58;;
28246;SDS011;34504;53.178;22.058;2022-11-15T17:09:18;92.75;;;49.60;;
28246;SDS011;34504;53.178;22.058;2022-11-15T17:11:51;58.95;;;29.65;;
28246;SDS011;34504;53.178;22.058;2022-11-15T17:14:19;63.75;;;28.23;;
28246;SDS011;34504;53.178;22.058;2022-11-15T17:16:50;85.05;;;36.13;;
28246;SDS011;34504;53.178;22.058;2022-11-15T17:19:21;62.38;;;27.90;;
28246;SDS011;34504;53.178;22.058;2022-11-15T17:21:49;124.97;;;51.42;;
28246;SDS011;34504;53.178;22.058;2022-11-15T17:24:18;138.20;;;58.53;;
28246;SDS011;34504;53.178;22.058;2022-11-15T17:26:48;121.18;;;56.33;;
28246;SDS011;34504;53.178;22.058;2022-11-15T17:29:16;92.30;;;41.97;;
28246;SDS011;34504;53.178;22.058;2022-11-15T17:31:45;81.15;;;39.30;;
28246;SDS011;34504;53.178;22.058;2022-11-15T17:34:13;104.32;;;50.95;;
28246;SDS011;34504;53.178;22.058;2022-11-15T17:36:42;108.20;;;56.08;;
28246;SDS011;34504;53.178;22.058;2022-11-15T17:39:10;113.47;;;52.50;;
28246;SDS011;34504;53.178;22.058;2022-11-15T17:41:40;134.60;;;59.13;;
28246;SDS011;34504;53.178;22.058;2022-11-15T17:44:09;135.40;;;64.53;;
28246;SDS011;34504;53.178;22.058;2022-11-15T17:46:38;79.57;;;37.20;;
28246;SDS011;34504;53.178;22.058;2022-11-15T17:49:07;86.82;;;42.38;;
28246;SDS011;34504;53.178;22.058;2022-11-15T17:51:35;90.38;;;47.20;;
28246;SDS011;34504;53.178;22.058;2022-11-15T17:54:04;95.25;;;51.60;;
28246;SDS011;34504;53.178;22.058;2022-11-15T17:56:33;141.18;;;71.85;;
28246;SDS011;34504;53.178;22.058;2022-11-15T17:59:10;140.15;;;66.57;;
28246;SDS011;34504;53.178;22.058;2022-11-15T18:01:45;102.20;;;47.65;;
28246;SDS011;34504;53.178;22.058;2022-11-15T18:04:13;112.00;;;46.67;;
28246;SDS011;34504;53.178;22.058;2022-11-15T18:06:42;100.82;;;40.63;;
28246;SDS011;34504;53.178;22.058;2022-11-15T18:11:42;109.45;;;43.50;;
28246;SDS011;34504;53.178;22.058;2022-11-15T18:14:15;128.63;;;52.55;;
28246;SDS011;34504;53.178;22.058;2022-11-15T18:16:45;109.03;;;48.22;;
28246;SDS011;34504;53.178;22.058;2022-11-15T18:19:18;121.10;;;57.05;;
28246;SDS011;34504;53.178;22.058;2022-11-15T18:21:48;112.03;;;50.42;;
28246;SDS011;34504;53.178;22.058;2022-11-15T18:24:31;110.00;;;44.70;;
28246;SDS011;34504;53.178;22.058;2022-11-15T18:27:06;99.22;;;41.22;;
28246;SDS011;34504;53.178;22.058;2022-11-15T18:29:34;98.07;;;39.38;;
28246;SDS011;34504;53.178;22.058;2022-11-15T18:32:05;103.40;;;42.05;;
28246;SDS011;34504;53.178;22.058;2022-11-15T18:34:38;118.55;;;44.20;;
28246;SDS011;34504;53.178;22.058;2022-11-15T18:37:07;118.60;;;41.78;;
28246;SDS011;34504;53.178;22.058;2022-11-15T18:39:36;85.55;;;32.70;;
28246;SDS011;34504;53.178;22.058;2022-11-15T18:42:04;105.97;;;40.03;;
28246;SDS011;34504;53.178;22.058;2022-11-15T18:44:32;93.45;;;35.40;;
28246;SDS011;34504;53.178;22.058;2022-11-15T18:47:01;122.57;;;40.88;;
28246;SDS011;34504;53.178;22.058;2022-11-15T18:49:29;102.97;;;41.35;;
28246;SDS011;34504;53.178;22.058;2022-11-15T18:51:59;106.05;;;41.42;;
28246;SDS011;34504;53.178;22.058;2022-11-15T18:54:27;118.50;;;47.78;;
28246;SDS011;34504;53.178;22.058;2022-11-15T18:59:27;132.98;;;49.47;;
28246;SDS011;34504;53.178;22.058;2022-11-15T19:01:56;116.60;;;44.65;;
28246;SDS011;34504;53.178;22.058;2022-11-15T19:04:24;98.50;;;39.55;;
28246;SDS011;34504;53.178;22.058;2022-11-15T19:06:52;111.57;;;42.70;;
28246;SDS011;34504;53.178;22.058;2022-11-15T19:09:21;127.90;;;52.17;;
28246;SDS011;34504;53.178;22.058;2022-11-15T19:11:54;96.32;;;35.88;;
28246;SDS011;34504;53.178;22.058;2022-11-15T19:14:24;78.22;;;30.85;;
28246;SDS011;34504;53.178;22.058;2022-11-15T19:16:55;81.80;;;34.25;;
28246;SDS011;34504;53.178;22.058;2022-11-15T19:19:24;98.07;;;39.03;;
28246;SDS011;34504;53.178;22.058;2022-11-15T19:21:58;94.53;;;37.08;;
28246;SDS011;34504;53.178;22.058;2022-11-15T19:24:29;99.20;;;40.50;;
28246;SDS011;34504;53.178;22.058;2022-11-15T19:27:00;77.88;;;32.08;;
28246;SDS011;34504;53.178;22.058;2022-11-15T19:29:28;85.22;;;37.53;;
28246;SDS011;34504;53.178;22.058;2022-11-15T19:31:57;80.18;;;33.20;;
28246;SDS011;34504;53.178;22.058;2022-11-15T19:34:29;99.00;;;40.25;;
28246;SDS011;34504;53.178;22.058;2022-11-15T19:36:58;115.85;;;49.42;;
28246;SDS011;34504;53.178;22.058;2022-11-15T19:39:26;120.57;;;49.63;;
28246;SDS011;34504;53.178;22.058;2022-11-15T19:41:54;131.50;;;55.60;;
28246;SDS011;34504;53.178;22.058;2022-11-15T19:44:22;115.25;;;48.42;;
28246;SDS011;34504;53.178;22.058;2022-11-15T19:46:52;135.43;;;53.40;;
28246;SDS011;34504;53.178;22.058;2022-11-15T19:49:21;122.78;;;49.38;;
28246;SDS011;34504;53.178;22.058;2022-11-15T19:51:51;143.27;;;55.95;;
28246;SDS011;34504;53.178;22.058;2022-11-15T19:54:19;116.22;;;51.10;;